sensor_id;sensor_type;location;lat;lon;timestamp;P1;durP1;ratioP1;P2;durP2;ratioP2
14040;SDS011;7095;51.388;6.196;2023-07-31T00:00:04;23.30;;;7.57;;
14040;SDS011;7095;51.388;6.196;2023-07-31T00:02:36;25.03;;;8.23;;
14040;SDS011;7095;51.388;6.196;2023-07-31T00:05:05;18.70;;;7.40;;
14040;SDS011;7095;51.388;6.196;2023-07-31T00:07:34;25.83;;;8.47;;
14040;SDS011;7095;51.388;6.196;2023-07-31T00:10:02;20.77;;;7.37;;
14040;SDS011;7095;51.388;6.196;2023-07-31T00:12:31;18.67;;;7.77;;
14040;SDS011;7095;51.388;6.196;2023-07-31T00:15:01;18.53;;;7.77;;
14040;SDS011;7095;51.388;6.196;2023-07-31T00:17:30;20.83;;;8.17;;
14040;SDS011;7095;51.388;6.196;2023-07-31T00:19:58;18.53;;;7.70;;
14040;SDS011;7095;51.388;6.196;2023-07-31T00:22:27;22.43;;;7.53;;
14040;SDS011;7095;51.388;6.196;2023-07-31T00:24:55;26.43;;;7.10;;
14040;SDS011;7095;51.388;6.196;2023-07-31T00:27:24;22.87;;;7.40;;
14040;SDS011;7095;51.388;6.196;2023-07-31T00:29:52;18.67;;;7.23;;
14040;SDS011;7095;51.388;6.196;2023-07-31T00:32:22;23.60;;;7.83;;
14040;SDS011;7095;51.388;6.196;2023-07-31T00:34:51;17.27;;;7.13;;
14040;SDS011;7095;51.388;6.196;2023-07-31T00:37:19;22.97;;;7.37;;
14040;SDS011;7095;51.388;6.196;2023-07-31T00:39:48;19.00;;;7.33;;
14040;SDS011;7095;51.388;6.196;2023-07-31T00:42:16;20.83;;;7.27;;
14040;SDS011;7095;51.388;6.196;2023-07-31T00:44:44;23.93;;;8.70;;
14040;SDS011;7095;51.388;6.196;2023-07-31T00:47:14;20.37;;;7.23;;
14040;SDS011;7095;51.388;6.196;2023-07-31T00:49:44;18.40;;;7.33;;
14040;SDS011;7095;51.388;6.196;2023-07-31T00:52:13;20.80;;;7.00;;
14040;SDS011;7095;51.388;6.196;2023-07-31T00:54:42;15.43;;;7.40;;
14040;SDS011;7095;51.388;6.196;2023-07-31T00:57:11;19.70;;;6.83;;
14040;SDS011;7095;51.388;6.196;2023-07-31T00:59:40;15.50;;;6.43;;
14040;SDS011;7095;51.388;6.196;2023-07-31T01:02:08;20.27;;;6.47;;
14040;SDS011;7095;51.388;6.196;2023-07-31T01:04:37;17.50;;;6.57;;
14040;SDS011;7095;51.388;6.196;2023-07-31T01:07:09;17.47;;;5.93;;
14040;SDS011;7095;51.388;6.196;2023-07-31T01:09:43;17.53;;;6.60;;
14040;SDS011;7095;51.388;6.196;2023-07-31T01:12:15;15.83;;;6.67;;
14040;SDS011;7095;51.388;6.196;2023-07-31T01:14:51;13.03;;;5.73;;
14040;SDS011;7095;51.388;6.196;2023-07-31T01:17:30;15.10;;;5.80;;
14040;SDS011;7095;51.388;6.196;2023-07-31T01:19:59;16.47;;;5.93;;
14040;SDS011;7095;51.388;6.196;2023-07-31T01:22:35;18.90;;;6.33;;
14040;SDS011;7095;51.388;6.196;2023-07-31T01:25:21;12.67;;;6.10;;
14040;SDS011;7095;51.388;6.196;2023-07-31T01:28:07;16.33;;;5.97;;
14040;SDS011;7095;51.388;6.196;2023-07-31T01:30:41;18.33;;;6.07;;
14040;SDS011;7095;51.388;6.196;2023-07-31T01:33:13;14.37;;;6.40;;
14040;SDS011;7095;51.388;6.196;2023-07-31T01:35:44;16.93;;;6.87;;
14040;SDS011;7095;51.388;6.196;2023-07-31T01:38:13;16.33;;;6.67;;
14040;SDS011;7095;51.388;6.196;2023-07-31T01:40:41;16.20;;;6.40;;
14040;SDS011;7095;51.388;6.196;2023-07-31T01:43:11;14.07;;;5.70;;
14040;SDS011;7095;51.388;6.196;2023-07-31T01:45:40;16.67;;;6.30;;
14040;SDS011;7095;51.388;6.196;2023-07-31T01:48:09;29.17;;;6.87;;
14040;SDS011;7095;51.388;6.196;2023-07-31T01:50:37;16.80;;;6.73;;
14040;SDS011;7095;51.388;6.196;2023-07-31T01:53:06;13.90;;;6.30;;
14040;SDS011;7095;51.388;6.196;2023-07-31T01:55:34;13.03;;;6.40;;
14040;SDS011;7095;51.388;6.196;2023-07-31T01:58:03;20.33;;;7.10;;
14040;SDS011;7095;51.388;6.196;2023-07-31T02:00:32;19.53;;;6.60;;
14040;SDS011;7095;51.388;6.196;2023-07-31T02:03:01;15.73;;;6.37;;
14040;SDS011;7095;51.388;6.196;2023-07-31T02:05:30;19.80;;;6.60;;
14040;SDS011;7095;51.388;6.196;2023-07-31T02:07:58;16.70;;;7.03;;
14040;SDS011;7095;51.388;6.196;2023-07-31T02:10:30;18.53;;;7.33;;
14040;SDS011;7095;51.388;6.196;2023-07-31T02:12:58;15.63;;;6.30;;
14040;SDS011;7095;51.388;6.196;2023-07-31T02:15:27;22.87;;;7.23;;
14040;SDS011;7095;51.388;6.196;2023-07-31T02:17:57;14.90;;;6.27;;
14040;SDS011;7095;51.388;6.196;2023-07-31T02:20:26;19.70;;;6.90;;
14040;SDS011;7095;51.388;6.196;2023-07-31T02:22:55;11.67;;;5.70;;
14040;SDS011;7095;51.388;6.196;2023-07-31T02:25:24;15.13;;;6.83;;
14040;SDS011;7095;51.388;6.196;2023-07-31T02:27:53;18.17;;;6.47;;
14040;SDS011;7095;51.388;6.196;2023-07-31T02:30:21;23.23;;;7.33;;
14040;SDS011;7095;51.388;6.196;2023-07-31T02:32:50;22.77;;;7.23;;
14040;SDS011;7095;51.388;6.196;2023-07-31T02:35:20;17.70;;;6.13;;
14040;SDS011;7095;51.388;6.196;2023-07-31T02:37:48;16.97;;;7.60;;
14040;SDS011;7095;51.388;6.196;2023-07-31T02:40:18;19.50;;;6.47;;
14040;SDS011;7095;51.388;6.196;2023-07-31T02:42:47;16.00;;;6.80;;
14040;SDS011;7095;51.388;6.196;2023-07-31T02:45:16;20.70;;;6.70;;
14040;SDS011;7095;51.388;6.196;2023-07-31T02:47:44;19.93;;;6.70;;
14040;SDS011;7095;51.388;6.196;2023-07-31T02:50:13;16.23;;;6.67;;
14040;SDS011;7095;51.388;6.196;2023-07-31T02:52:42;18.87;;;6.67;;
14040;SDS011;7095;51.388;6.196;2023-07-31T02:55:11;23.87;;;7.17;;
14040;SDS011;7095;51.388;6.196;2023-07-31T02:57:40;20.20;;;7.23;;
14040;SDS011;7095;51.388;6.196;2023-07-31T03:00:08;13.33;;;6.17;;
14040;SDS011;7095;51.388;6.196;2023-07-31T03:02:37;15.93;;;6.80;;
14040;SDS011;7095;51.388;6.196;2023-07-31T03:05:06;22.53;;;7.50;;
14040;SDS011;7095;51.388;6.196;2023-07-31T03:07:35;19.20;;;6.43;;
14040;SDS011;7095;51.388;6.196;2023-07-31T03:10:06;25.53;;;7.60;;
14040;SDS011;7095;51.388;6.196;2023-07-31T03:12:35;16.00;;;6.00;;
14040;SDS011;7095;51.388;6.196;2023-07-31T03:15:04;14.60;;;6.20;;
14040;SDS011;7095;51.388;6.196;2023-07-31T03:17:33;22.07;;;6.80;;
14040;SDS011;7095;51.388;6.196;2023-07-31T03:20:02;16.10;;;6.23;;
14040;SDS011;7095;51.388;6.196;2023-07-31T03:22:31;14.17;;;6.93;;
14040;SDS011;7095;51.388;6.196;2023-07-31T03:25:01;15.23;;;6.27;;
14040;SDS011;7095;51.388;6.196;2023-07-31T03:27:32;16.17;;;6.83;;
14040;SDS011;7095;51.388;6.196;2023-07-31T03:30:00;16.30;;;6.73;;
14040;SDS011;7095;51.388;6.196;2023-07-31T03:32:30;18.97;;;6.67;;
14040;SDS011;7095;51.388;6.196;2023-07-31T03:34:59;16.90;;;6.67;;
14040;SDS011;7095;51.388;6.196;2023-07-31T03:37:29;16.67;;;6.00;;
14040;SDS011;7095;51.388;6.196;2023-07-31T03:39:57;13.83;;;6.20;;
14040;SDS011;7095;51.388;6.196;2023-07-31T03:42:26;13.50;;;6.03;;
14040;SDS011;7095;51.388;6.196;2023-07-31T03:44:56;23.30;;;6.87;;
14040;SDS011;7095;51.388;6.196;2023-07-31T03:47:24;17.93;;;6.33;;
14040;SDS011;7095;51.388;6.196;2023-07-31T03:49:53;21.40;;;7.13;;
14040;SDS011;7095;51.388;6.196;2023-07-31T03:52:21;14.73;;;6.47;;
14040;SDS011;7095;51.388;6.196;2023-07-31T03:54:50;18.07;;;6.97;;
14040;SDS011;7095;51.388;6.196;2023-07-31T03:57:18;16.47;;;6.67;;
14040;SDS011;7095;51.388;6.196;2023-07-31T03:59:47;13.27;;;6.00;;
14040;SDS011;7095;51.388;6.196;2023-07-31T04:02:17;18.23;;;6.60;;
14040;SDS011;7095;51.388;6.196;2023-07-31T04:04:46;15.90;;;6.77;;
14040;SDS011;7095;51.388;6.196;2023-07-31T04:07:14;14.70;;;7.27;;
14040;SDS011;7095;51.388;6.196;2023-07-31T04:09:43;17.93;;;6.63;;
14040;SDS011;7095;51.388;6.196;2023-07-31T04:12:11;16.50;;;6.47;;
14040;SDS011;7095;51.388;6.196;2023-07-31T04:14:40;19.47;;;6.70;;
14040;SDS011;7095;51.388;6.196;2023-07-31T04:17:08;15.20;;;6.20;;
14040;SDS011;7095;51.388;6.196;2023-07-31T04:19:39;17.60;;;6.43;;
14040;SDS011;7095;51.388;6.196;2023-07-31T04:22:08;14.40;;;6.20;;
14040;SDS011;7095;51.388;6.196;2023-07-31T04:24:36;16.87;;;6.10;;
14040;SDS011;7095;51.388;6.196;2023-07-31T04:27:05;17.20;;;5.87;;
14040;SDS011;7095;51.388;6.196;2023-07-31T04:29:33;16.00;;;7.10;;
14040;SDS011;7095;51.388;6.196;2023-07-31T04:32:02;20.97;;;6.50;;
14040;SDS011;7095;51.388;6.196;2023-07-31T04:34:31;20.77;;;7.07;;
14040;SDS011;7095;51.388;6.196;2023-07-31T04:37:00;13.43;;;6.00;;
14040;SDS011;7095;51.388;6.196;2023-07-31T04:39:29;13.67;;;5.77;;
14040;SDS011;7095;51.388;6.196;2023-07-31T04:41:58;14.17;;;6.87;;
14040;SDS011;7095;51.388;6.196;2023-07-31T04:44:26;10.80;;;5.97;;
14040;SDS011;7095;51.388;6.196;2023-07-31T04:46:54;13.73;;;6.17;;
14040;SDS011;7095;51.388;6.196;2023-07-31T04:49:23;16.47;;;7.10;;
14040;SDS011;7095;51.388;6.196;2023-07-31T04:51:52;18.30;;;6.83;;
14040;SDS011;7095;51.388;6.196;2023-07-31T04:54:21;16.10;;;7.20;;
14040;SDS011;7095;51.388;6.196;2023-07-31T04:56:53;16.50;;;6.37;;
14040;SDS011;7095;51.388;6.196;2023-07-31T04:59:22;11.20;;;5.83;;
14040;SDS011;7095;51.388;6.196;2023-07-31T05:01:50;13.13;;;6.93;;
14040;SDS011;7095;51.388;6.196;2023-07-31T05:04:19;11.43;;;6.13;;
14040;SDS011;7095;51.388;6.196;2023-07-31T05:06:47;14.00;;;6.77;;
14040;SDS011;7095;51.388;6.196;2023-07-31T05:09:16;17.57;;;7.57;;
14040;SDS011;7095;51.388;6.196;2023-07-31T05:11:47;11.77;;;5.50;;
14040;SDS011;7095;51.388;6.196;2023-07-31T05:14:16;13.70;;;6.33;;
14040;SDS011;7095;51.388;6.196;2023-07-31T05:16:44;11.93;;;5.93;;
14040;SDS011;7095;51.388;6.196;2023-07-31T05:19:13;8.70;;;5.93;;
14040;SDS011;7095;51.388;6.196;2023-07-31T05:21:41;12.83;;;6.07;;
14040;SDS011;7095;51.388;6.196;2023-07-31T05:24:10;10.33;;;5.83;;
14040;SDS011;7095;51.388;6.196;2023-07-31T05:26:38;11.67;;;6.20;;
14040;SDS011;7095;51.388;6.196;2023-07-31T05:29:09;14.27;;;6.90;;
14040;SDS011;7095;51.388;6.196;2023-07-31T05:31:38;12.43;;;6.13;;
14040;SDS011;7095;51.388;6.196;2023-07-31T05:34:06;16.97;;;6.03;;
14040;SDS011;7095;51.388;6.196;2023-07-31T05:36:35;11.77;;;6.17;;
14040;SDS011;7095;51.388;6.196;2023-07-31T05:39:04;19.13;;;6.83;;
14040;SDS011;7095;51.388;6.196;2023-07-31T05:41:34;12.63;;;6.43;;
14040;SDS011;7095;51.388;6.196;2023-07-31T05:44:03;9.33;;;5.97;;
14040;SDS011;7095;51.388;6.196;2023-07-31T05:46:33;13.00;;;6.13;;
14040;SDS011;7095;51.388;6.196;2023-07-31T05:49:02;8.63;;;5.70;;
14040;SDS011;7095;51.388;6.196;2023-07-31T05:51:30;11.97;;;7.17;;
14040;SDS011;7095;51.388;6.196;2023-07-31T05:53:59;11.13;;;6.20;;
14040;SDS011;7095;51.388;6.196;2023-07-31T05:56:27;11.20;;;6.30;;
14040;SDS011;7095;51.388;6.196;2023-07-31T05:58:56;14.27;;;7.33;;
14040;SDS011;7095;51.388;6.196;2023-07-31T06:01:25;13.73;;;6.50;;
14040;SDS011;7095;51.388;6.196;2023-07-31T06:03:55;9.03;;;6.57;;
14040;SDS011;7095;51.388;6.196;2023-07-31T06:06:24;13.70;;;7.33;;
14040;SDS011;7095;51.388;6.196;2023-07-31T06:08:52;13.07;;;6.73;;
14040;SDS011;7095;51.388;6.196;2023-07-31T06:11:21;14.03;;;7.00;;
14040;SDS011;7095;51.388;6.196;2023-07-31T06:13:49;17.43;;;7.17;;
14040;SDS011;7095;51.388;6.196;2023-07-31T06:16:18;11.37;;;6.87;;
14040;SDS011;7095;51.388;6.196;2023-07-31T06:18:48;11.83;;;6.57;;
14040;SDS011;7095;51.388;6.196;2023-07-31T06:21:18;12.30;;;6.80;;
14040;SDS011;7095;51.388;6.196;2023-07-31T06:23:46;16.50;;;7.23;;
14040;SDS011;7095;51.388;6.196;2023-07-31T06:26:15;11.67;;;6.40;;
14040;SDS011;7095;51.388;6.196;2023-07-31T06:28:43;15.80;;;7.10;;
14040;SDS011;7095;51.388;6.196;2023-07-31T06:31:12;13.23;;;6.70;;
14040;SDS011;7095;51.388;6.196;2023-07-31T06:33:41;16.13;;;7.67;;
14040;SDS011;7095;51.388;6.196;2023-07-31T06:36:09;12.33;;;6.87;;
14040;SDS011;7095;51.388;6.196;2023-07-31T06:38:39;14.90;;;7.57;;
14040;SDS011;7095;51.388;6.196;2023-07-31T06:41:08;20.23;;;7.70;;
14040;SDS011;7095;51.388;6.196;2023-07-31T06:43:37;12.00;;;7.73;;
14040;SDS011;7095;51.388;6.196;2023-07-31T06:46:05;12.80;;;7.73;;
14040;SDS011;7095;51.388;6.196;2023-07-31T06:48:35;12.93;;;7.20;;
14040;SDS011;7095;51.388;6.196;2023-07-31T06:51:04;10.93;;;6.63;;
14040;SDS011;7095;51.388;6.196;2023-07-31T06:53:33;12.97;;;6.97;;
14040;SDS011;7095;51.388;6.196;2023-07-31T06:56:03;13.23;;;7.23;;
14040;SDS011;7095;51.388;6.196;2023-07-31T06:58:32;13.90;;;7.77;;
14040;SDS011;7095;51.388;6.196;2023-07-31T07:01:00;15.60;;;7.77;;
14040;SDS011;7095;51.388;6.196;2023-07-31T07:03:29;17.47;;;7.30;;
14040;SDS011;7095;51.388;6.196;2023-07-31T07:05:57;12.90;;;7.50;;
14040;SDS011;7095;51.388;6.196;2023-07-31T07:08:26;16.97;;;7.30;;
14040;SDS011;7095;51.388;6.196;2023-07-31T07:10:55;14.20;;;7.63;;
14040;SDS011;7095;51.388;6.196;2023-07-31T07:13:25;15.03;;;6.97;;
14040;SDS011;7095;51.388;6.196;2023-07-31T07:15:53;16.93;;;7.30;;
14040;SDS011;7095;51.388;6.196;2023-07-31T07:18:22;11.50;;;6.07;;
14040;SDS011;7095;51.388;6.196;2023-07-31T07:20:52;9.13;;;6.37;;
14040;SDS011;7095;51.388;6.196;2023-07-31T07:23:21;14.43;;;6.23;;
14040;SDS011;7095;51.388;6.196;2023-07-31T07:25:49;13.13;;;5.87;;
14040;SDS011;7095;51.388;6.196;2023-07-31T07:28:20;12.60;;;6.30;;
14040;SDS011;7095;51.388;6.196;2023-07-31T07:30:52;9.87;;;6.17;;
14040;SDS011;7095;51.388;6.196;2023-07-31T07:33:21;10.47;;;5.83;;
14040;SDS011;7095;51.388;6.196;2023-07-31T07:35:49;13.40;;;5.53;;
14040;SDS011;7095;51.388;6.196;2023-07-31T07:38:18;8.17;;;5.40;;
14040;SDS011;7095;51.388;6.196;2023-07-31T07:40:47;8.33;;;4.50;;
14040;SDS011;7095;51.388;6.196;2023-07-31T07:43:17;6.97;;;4.93;;
14040;SDS011;7095;51.388;6.196;2023-07-31T07:45:45;7.67;;;5.33;;
14040;SDS011;7095;51.388;6.196;2023-07-31T07:48:15;9.40;;;4.80;;
14040;SDS011;7095;51.388;6.196;2023-07-31T07:50:45;8.13;;;4.70;;
14040;SDS011;7095;51.388;6.196;2023-07-31T07:53:13;8.10;;;4.97;;
14040;SDS011;7095;51.388;6.196;2023-07-31T07:55:42;7.00;;;5.20;;
14040;SDS011;7095;51.388;6.196;2023-07-31T07:58:10;10.47;;;4.60;;
14040;SDS011;7095;51.388;6.196;2023-07-31T08:00:39;7.80;;;4.77;;
14040;SDS011;7095;51.388;6.196;2023-07-31T08:03:08;8.50;;;4.37;;
14040;SDS011;7095;51.388;6.196;2023-07-31T08:05:38;8.17;;;4.57;;
14040;SDS011;7095;51.388;6.196;2023-07-31T08:08:06;7.20;;;4.60;;
14040;SDS011;7095;51.388;6.196;2023-07-31T08:10:35;8.57;;;4.70;;
14040;SDS011;7095;51.388;6.196;2023-07-31T08:13:04;8.70;;;5.17;;
14040;SDS011;7095;51.388;6.196;2023-07-31T08:15:32;11.23;;;5.30;;
14040;SDS011;7095;51.388;6.196;2023-07-31T08:18:01;6.93;;;4.80;;
14040;SDS011;7095;51.388;6.196;2023-07-31T08:20:30;7.37;;;4.77;;
14040;SDS011;7095;51.388;6.196;2023-07-31T08:23:00;5.47;;;4.30;;
14040;SDS011;7095;51.388;6.196;2023-07-31T08:25:28;8.60;;;4.60;;
14040;SDS011;7095;51.388;6.196;2023-07-31T08:27:57;9.57;;;4.60;;
14040;SDS011;7095;51.388;6.196;2023-07-31T08:30:26;8.53;;;4.70;;
14040;SDS011;7095;51.388;6.196;2023-07-31T08:32:54;11.13;;;5.10;;
14040;SDS011;7095;51.388;6.196;2023-07-31T08:35:23;8.20;;;4.97;;
14040;SDS011;7095;51.388;6.196;2023-07-31T08:37:52;8.10;;;5.50;;
14040;SDS011;7095;51.388;6.196;2023-07-31T08:40:22;7.07;;;4.73;;
14040;SDS011;7095;51.388;6.196;2023-07-31T08:42:51;8.70;;;4.73;;
14040;SDS011;7095;51.388;6.196;2023-07-31T08:45:23;10.07;;;5.20;;
14040;SDS011;7095;51.388;6.196;2023-07-31T08:47:52;9.37;;;5.50;;
14040;SDS011;7095;51.388;6.196;2023-07-31T08:50:21;10.23;;;5.30;;
14040;SDS011;7095;51.388;6.196;2023-07-31T08:52:50;10.53;;;5.67;;
14040;SDS011;7095;51.388;6.196;2023-07-31T08:55:23;8.77;;;4.80;;
14040;SDS011;7095;51.388;6.196;2023-07-31T08:57:53;9.40;;;4.90;;
14040;SDS011;7095;51.388;6.196;2023-07-31T09:00:23;6.90;;;4.50;;
14040;SDS011;7095;51.388;6.196;2023-07-31T09:02:55;9.57;;;5.70;;
14040;SDS011;7095;51.388;6.196;2023-07-31T09:05:26;10.63;;;5.13;;
14040;SDS011;7095;51.388;6.196;2023-07-31T09:07:57;8.20;;;5.30;;
14040;SDS011;7095;51.388;6.196;2023-07-31T09:10:27;8.53;;;4.50;;
14040;SDS011;7095;51.388;6.196;2023-07-31T09:12:55;10.03;;;4.77;;
14040;SDS011;7095;51.388;6.196;2023-07-31T09:15:25;10.00;;;5.20;;
14040;SDS011;7095;51.388;6.196;2023-07-31T09:18:04;8.43;;;4.93;;
14040;SDS011;7095;51.388;6.196;2023-07-31T09:20:34;11.47;;;5.20;;
14040;SDS011;7095;51.388;6.196;2023-07-31T09:23:05;6.77;;;5.23;;
14040;SDS011;7095;51.388;6.196;2023-07-31T09:25:37;7.97;;;4.90;;
14040;SDS011;7095;51.388;6.196;2023-07-31T09:28:07;10.93;;;5.60;;
14040;SDS011;7095;51.388;6.196;2023-07-31T09:30:46;10.30;;;5.20;;
14040;SDS011;7095;51.388;6.196;2023-07-31T09:33:17;9.27;;;5.30;;
14040;SDS011;7095;51.388;6.196;2023-07-31T09:35:47;23.97;;;6.97;;
14040;SDS011;7095;51.388;6.196;2023-07-31T09:38:16;9.23;;;5.43;;
14040;SDS011;7095;51.388;6.196;2023-07-31T09:40:46;9.17;;;6.00;;
14040;SDS011;7095;51.388;6.196;2023-07-31T09:43:17;9.07;;;5.57;;
14040;SDS011;7095;51.388;6.196;2023-07-31T09:45:47;9.43;;;5.23;;
14040;SDS011;7095;51.388;6.196;2023-07-31T09:48:16;11.10;;;5.97;;
14040;SDS011;7095;51.388;6.196;2023-07-31T09:50:46;8.67;;;4.80;;
14040;SDS011;7095;51.388;6.196;2023-07-31T09:53:16;10.53;;;5.17;;
14040;SDS011;7095;51.388;6.196;2023-07-31T09:55:46;8.83;;;5.30;;
14040;SDS011;7095;51.388;6.196;2023-07-31T09:58:14;10.73;;;4.67;;
14040;SDS011;7095;51.388;6.196;2023-07-31T10:00:43;7.57;;;5.17;;
14040;SDS011;7095;51.388;6.196;2023-07-31T10:03:13;8.70;;;5.20;;
14040;SDS011;7095;51.388;6.196;2023-07-31T10:05:45;9.80;;;5.53;;
14040;SDS011;7095;51.388;6.196;2023-07-31T10:08:17;10.63;;;5.17;;
14040;SDS011;7095;51.388;6.196;2023-07-31T10:10:51;8.80;;;5.20;;
14040;SDS011;7095;51.388;6.196;2023-07-31T10:13:20;9.33;;;4.60;;
14040;SDS011;7095;51.388;6.196;2023-07-31T10:15:49;6.73;;;4.57;;
14040;SDS011;7095;51.388;6.196;2023-07-31T10:18:18;7.83;;;4.83;;
14040;SDS011;7095;51.388;6.196;2023-07-31T10:20:48;6.93;;;4.77;;
14040;SDS011;7095;51.388;6.196;2023-07-31T10:23:17;10.80;;;5.17;;
14040;SDS011;7095;51.388;6.196;2023-07-31T10:25:46;10.40;;;4.73;;
14040;SDS011;7095;51.388;6.196;2023-07-31T10:28:17;9.03;;;4.77;;
14040;SDS011;7095;51.388;6.196;2023-07-31T10:30:46;10.30;;;4.90;;
14040;SDS011;7095;51.388;6.196;2023-07-31T10:33:16;5.50;;;4.10;;
14040;SDS011;7095;51.388;6.196;2023-07-31T10:35:46;8.07;;;4.00;;
14040;SDS011;7095;51.388;6.196;2023-07-31T10:38:15;8.43;;;4.20;;
14040;SDS011;7095;51.388;6.196;2023-07-31T10:40:43;4.90;;;3.90;;
14040;SDS011;7095;51.388;6.196;2023-07-31T10:43:24;5.77;;;4.00;;
14040;SDS011;7095;51.388;6.196;2023-07-31T10:45:54;8.40;;;3.97;;
14040;SDS011;7095;51.388;6.196;2023-07-31T10:48:23;6.20;;;3.80;;
14040;SDS011;7095;51.388;6.196;2023-07-31T10:50:52;9.50;;;4.27;;
14040;SDS011;7095;51.388;6.196;2023-07-31T10:53:23;6.10;;;3.63;;
14040;SDS011;7095;51.388;6.196;2023-07-31T10:55:53;5.70;;;3.43;;
14040;SDS011;7095;51.388;6.196;2023-07-31T10:58:27;5.13;;;3.37;;
14040;SDS011;7095;51.388;6.196;2023-07-31T11:00:58;4.83;;;3.33;;
14040;SDS011;7095;51.388;6.196;2023-07-31T11:03:42;6.50;;;3.60;;
14040;SDS011;7095;51.388;6.196;2023-07-31T11:06:12;3.60;;;3.20;;
14040;SDS011;7095;51.388;6.196;2023-07-31T11:08:45;6.60;;;3.40;;
14040;SDS011;7095;51.388;6.196;2023-07-31T11:11:15;6.87;;;3.20;;
14040;SDS011;7095;51.388;6.196;2023-07-31T11:13:47;6.30;;;3.70;;
14040;SDS011;7095;51.388;6.196;2023-07-31T11:16:17;5.63;;;3.33;;
14040;SDS011;7095;51.388;6.196;2023-07-31T11:18:48;5.20;;;3.67;;
14040;SDS011;7095;51.388;6.196;2023-07-31T11:21:18;7.60;;;3.43;;
14040;SDS011;7095;51.388;6.196;2023-07-31T11:23:48;7.57;;;3.53;;
14040;SDS011;7095;51.388;6.196;2023-07-31T11:26:18;4.70;;;3.00;;
14040;SDS011;7095;51.388;6.196;2023-07-31T11:28:49;7.40;;;3.33;;
14040;SDS011;7095;51.388;6.196;2023-07-31T11:31:19;3.73;;;3.17;;
14040;SDS011;7095;51.388;6.196;2023-07-31T11:33:48;4.90;;;3.10;;
14040;SDS011;7095;51.388;6.196;2023-07-31T11:36:16;4.03;;;2.93;;
14040;SDS011;7095;51.388;6.196;2023-07-31T11:38:46;4.20;;;3.37;;
14040;SDS011;7095;51.388;6.196;2023-07-31T11:41:15;5.37;;;2.60;;
14040;SDS011;7095;51.388;6.196;2023-07-31T11:43:45;4.63;;;3.30;;
14040;SDS011;7095;51.388;6.196;2023-07-31T11:46:16;5.20;;;2.80;;
14040;SDS011;7095;51.388;6.196;2023-07-31T11:48:46;6.93;;;3.27;;
14040;SDS011;7095;51.388;6.196;2023-07-31T11:51:15;4.67;;;3.40;;
14040;SDS011;7095;51.388;6.196;2023-07-31T11:53:44;4.63;;;3.27;;
14040;SDS011;7095;51.388;6.196;2023-07-31T11:56:17;5.87;;;3.37;;
14040;SDS011;7095;51.388;6.196;2023-07-31T11:58:48;4.40;;;3.33;;
14040;SDS011;7095;51.388;6.196;2023-07-31T12:01:20;8.97;;;3.77;;
14040;SDS011;7095;51.388;6.196;2023-07-31T12:03:50;4.17;;;3.17;;
14040;SDS011;7095;51.388;6.196;2023-07-31T12:06:20;3.90;;;3.43;;
14040;SDS011;7095;51.388;6.196;2023-07-31T12:08:49;5.33;;;3.00;;
14040;SDS011;7095;51.388;6.196;2023-07-31T12:11:17;5.07;;;3.47;;
14040;SDS011;7095;51.388;6.196;2023-07-31T12:13:46;6.03;;;3.47;;
14040;SDS011;7095;51.388;6.196;2023-07-31T12:16:15;5.73;;;3.83;;
14040;SDS011;7095;51.388;6.196;2023-07-31T12:18:45;4.67;;;3.03;;
14040;SDS011;7095;51.388;6.196;2023-07-31T12:21:17;5.60;;;3.53;;
14040;SDS011;7095;51.388;6.196;2023-07-31T12:23:47;5.37;;;3.73;;
14040;SDS011;7095;51.388;6.196;2023-07-31T12:26:16;8.23;;;3.60;;
14040;SDS011;7095;51.388;6.196;2023-07-31T12:28:45;6.57;;;3.20;;
14040;SDS011;7095;51.388;6.196;2023-07-31T12:31:15;7.83;;;3.97;;
14040;SDS011;7095;51.388;6.196;2023-07-31T12:33:47;5.03;;;3.20;;
14040;SDS011;7095;51.388;6.196;2023-07-31T12:36:18;6.77;;;4.10;;
14040;SDS011;7095;51.388;6.196;2023-07-31T12:38:48;7.10;;;4.30;;
14040;SDS011;7095;51.388;6.196;2023-07-31T12:41:18;5.83;;;4.10;;
14040;SDS011;7095;51.388;6.196;2023-07-31T12:43:47;6.20;;;3.83;;
14040;SDS011;7095;51.388;6.196;2023-07-31T12:46:15;9.53;;;4.93;;
14040;SDS011;7095;51.388;6.196;2023-07-31T12:48:45;6.50;;;4.50;;
14040;SDS011;7095;51.388;6.196;2023-07-31T12:51:14;7.77;;;5.07;;
14040;SDS011;7095;51.388;6.196;2023-07-31T12:53:42;7.37;;;4.47;;
14040;SDS011;7095;51.388;6.196;2023-07-31T12:56:11;7.27;;;4.30;;
14040;SDS011;7095;51.388;6.196;2023-07-31T12:58:40;10.23;;;4.90;;
14040;SDS011;7095;51.388;6.196;2023-07-31T13:01:09;8.80;;;4.60;;
14040;SDS011;7095;51.388;6.196;2023-07-31T13:03:37;6.33;;;4.57;;
14040;SDS011;7095;51.388;6.196;2023-07-31T13:06:07;7.00;;;4.80;;
14040;SDS011;7095;51.388;6.196;2023-07-31T13:08:36;10.60;;;5.10;;
14040;SDS011;7095;51.388;6.196;2023-07-31T13:11:05;7.03;;;4.90;;
14040;SDS011;7095;51.388;6.196;2023-07-31T13:13:33;8.87;;;5.10;;
14040;SDS011;7095;51.388;6.196;2023-07-31T13:16:02;9.83;;;4.87;;
14040;SDS011;7095;51.388;6.196;2023-07-31T13:18:30;14.67;;;4.93;;
14040;SDS011;7095;51.388;6.196;2023-07-31T13:20:59;7.20;;;4.70;;
14040;SDS011;7095;51.388;6.196;2023-07-31T13:23:29;9.57;;;5.70;;
14040;SDS011;7095;51.388;6.196;2023-07-31T13:25:58;6.87;;;4.87;;
14040;SDS011;7095;51.388;6.196;2023-07-31T13:28:26;7.13;;;5.03;;
14040;SDS011;7095;51.388;6.196;2023-07-31T13:30:55;12.57;;;5.63;;
14040;SDS011;7095;51.388;6.196;2023-07-31T13:33:24;7.57;;;5.07;;
14040;SDS011;7095;51.388;6.196;2023-07-31T13:36:03;8.20;;;5.30;;
14040;SDS011;7095;51.388;6.196;2023-07-31T13:38:34;10.80;;;5.30;;
14040;SDS011;7095;51.388;6.196;2023-07-31T13:41:02;8.60;;;5.03;;
14040;SDS011;7095;51.388;6.196;2023-07-31T13:43:32;8.77;;;4.80;;
14040;SDS011;7095;51.388;6.196;2023-07-31T13:46:00;8.97;;;4.60;;
14040;SDS011;7095;51.388;6.196;2023-07-31T13:48:33;11.80;;;5.40;;
14040;SDS011;7095;51.388;6.196;2023-07-31T13:51:02;9.60;;;5.20;;
14040;SDS011;7095;51.388;6.196;2023-07-31T13:53:31;9.80;;;5.90;;
14040;SDS011;7095;51.388;6.196;2023-07-31T13:56:01;13.27;;;5.23;;
14040;SDS011;7095;51.388;6.196;2023-07-31T13:58:30;9.23;;;5.93;;
14040;SDS011;7095;51.388;6.196;2023-07-31T14:00:58;10.37;;;5.47;;
14040;SDS011;7095;51.388;6.196;2023-07-31T14:03:27;7.57;;;5.30;;
14040;SDS011;7095;51.388;6.196;2023-07-31T14:05:56;10.77;;;5.20;;
14040;SDS011;7095;51.388;6.196;2023-07-31T14:08:24;9.77;;;5.20;;
14040;SDS011;7095;51.388;6.196;2023-07-31T14:10:53;8.67;;;5.53;;
14040;SDS011;7095;51.388;6.196;2023-07-31T14:13:23;8.40;;;5.10;;
14040;SDS011;7095;51.388;6.196;2023-07-31T14:15:52;7.03;;;5.03;;
14040;SDS011;7095;51.388;6.196;2023-07-31T14:18:20;9.33;;;5.80;;
14040;SDS011;7095;51.388;6.196;2023-07-31T14:20:49;10.20;;;5.70;;
14040;SDS011;7095;51.388;6.196;2023-07-31T14:23:18;10.73;;;5.60;;
14040;SDS011;7095;51.388;6.196;2023-07-31T14:25:47;8.43;;;4.93;;
14040;SDS011;7095;51.388;6.196;2023-07-31T14:28:15;6.70;;;5.17;;
14040;SDS011;7095;51.388;6.196;2023-07-31T14:30:45;11.23;;;4.97;;
14040;SDS011;7095;51.388;6.196;2023-07-31T14:33:14;7.87;;;5.50;;
14040;SDS011;7095;51.388;6.196;2023-07-31T14:35:42;12.00;;;5.53;;
14040;SDS011;7095;51.388;6.196;2023-07-31T14:38:11;9.40;;;4.47;;
14040;SDS011;7095;51.388;6.196;2023-07-31T14:40:41;10.13;;;5.30;;
14040;SDS011;7095;51.388;6.196;2023-07-31T14:43:10;9.83;;;5.70;;
14040;SDS011;7095;51.388;6.196;2023-07-31T14:45:39;9.87;;;5.27;;
14040;SDS011;7095;51.388;6.196;2023-07-31T14:48:09;10.53;;;5.80;;
14040;SDS011;7095;51.388;6.196;2023-07-31T14:50:37;8.67;;;5.30;;
14040;SDS011;7095;51.388;6.196;2023-07-31T14:53:08;8.67;;;5.83;;
14040;SDS011;7095;51.388;6.196;2023-07-31T14:55:37;11.03;;;5.40;;
14040;SDS011;7095;51.388;6.196;2023-07-31T14:58:05;7.93;;;5.33;;
14040;SDS011;7095;51.388;6.196;2023-07-31T15:00:34;10.57;;;5.63;;
14040;SDS011;7095;51.388;6.196;2023-07-31T15:03:02;9.93;;;5.20;;
14040;SDS011;7095;51.388;6.196;2023-07-31T15:05:33;10.57;;;5.03;;